sensor_id;sensor_type;location;lat;lon;timestamp;temperature;humidity
43087;DHT22;28708;52.224;6.924;2023-02-08T00:01:11;-0.20;99.90
43087;DHT22;28708;52.224;6.924;2023-02-08T00:03:37;-0.30;99.90
43087;DHT22;28708;52.224;6.924;2023-02-08T00:06:04;-0.30;99.90
43087;DHT22;28708;52.224;6.924;2023-02-08T00:08:30;-0.30;99.90
43087;DHT22;28708;52.224;6.924;2023-02-08T00:10:56;-0.30;99.90
43087;DHT22;28708;52.224;6.924;2023-02-08T00:13:22;-0.30;99.90
43087;DHT22;28708;52.224;6.924;2023-02-08T00:15:48;-0.30;99.90
43087;DHT22;28708;52.224;6.924;2023-02-08T00:18:16;-0.30;99.90
43087;DHT22;28708;52.224;6.924;2023-02-08T00:20:42;-0.40;99.90
43087;DHT22;28708;52.224;6.924;2023-02-08T00:23:08;-0.30;99.90
43087;DHT22;28708;52.224;6.924;2023-02-08T00:25:34;-0.30;99.90
43087;DHT22;28708;52.224;6.924;2023-02-08T00:28:00;-0.30;99.90
43087;DHT22;28708;52.224;6.924;2023-02-08T00:30:26;-0.30;99.90
43087;DHT22;28708;52.224;6.924;2023-02-08T00:32:55;-0.30;99.90
43087;DHT22;28708;52.224;6.924;2023-02-08T00:35:21;-0.30;99.90
43087;DHT22;28708;52.224;6.924;2023-02-08T00:37:46;-0.40;99.90
43087;DHT22;28708;52.224;6.924;2023-02-08T00:40:12;-0.50;99.90
43087;DHT22;28708;52.224;6.924;2023-02-08T00:42:38;-0.50;99.90
43087;DHT22;28708;52.224;6.924;2023-02-08T00:45:04;-0.40;99.90
43087;DHT22;28708;52.224;6.924;2023-02-08T00:47:30;-0.40;99.90
43087;DHT22;28708;52.224;6.924;2023-02-08T00:49:55;-0.30;99.90
43087;DHT22;28708;52.224;6.924;2023-02-08T00:52:21;-0.30;99.90
43087;DHT22;28708;52.224;6.924;2023-02-08T00:54:47;-0.30;99.90
43087;DHT22;28708;52.224;6.924;2023-02-08T00:57:13;-0.40;99.90
43087;DHT22;28708;52.224;6.924;2023-02-08T00:59:39;-0.40;99.90
43087;DHT22;28708;52.224;6.924;2023-02-08T01:02:05;-0.40;99.90
43087;DHT22;28708;52.224;6.924;2023-02-08T01:04:31;-0.40;99.90
43087;DHT22;28708;52.224;6.924;2023-02-08T01:06:57;-0.50;99.90
43087;DHT22;28708;52.224;6.924;2023-02-08T01:09:23;-0.50;99.90
43087;DHT22;28708;52.224;6.924;2023-02-08T01:11:49;-0.50;99.90
43087;DHT22;28708;52.224;6.924;2023-02-08T01:14:15;-0.50;99.90
43087;DHT22;28708;52.224;6.924;2023-02-08T01:16:41;-0.40;99.90
43087;DHT22;28708;52.224;6.924;2023-02-08T01:19:06;-0.50;99.90
43087;DHT22;28708;52.224;6.924;2023-02-08T01:21:37;-0.40;99.90
43087;DHT22;28708;52.224;6.924;2023-02-08T01:24:04;-0.40;99.90
43087;DHT22;28708;52.224;6.924;2023-02-08T01:26:30;-0.40;99.90
43087;DHT22;28708;52.224;6.924;2023-02-08T01:28:57;-0.50;99.90
43087;DHT22;28708;52.224;6.924;2023-02-08T01:31:29;-0.50;99.90
43087;DHT22;28708;52.224;6.924;2023-02-08T01:33:59;-0.60;99.90
43087;DHT22;28708;52.224;6.924;2023-02-08T01:36:26;-0.60;99.90
43087;DHT22;28708;52.224;6.924;2023-02-08T01:38:52;-0.60;99.90
43087;DHT22;28708;52.224;6.924;2023-02-08T01:41:21;-0.60;99.90
43087;DHT22;28708;52.224;6.924;2023-02-08T01:46:27;-0.60;99.90
43087;DHT22;28708;52.224;6.924;2023-02-08T01:48:58;-0.60;99.90
43087;DHT22;28708;52.224;6.924;2023-02-08T01:51:28;-0.70;99.90
43087;DHT22;28708;52.224;6.924;2023-02-08T01:53:56;-0.70;99.90
43087;DHT22;28708;52.224;6.924;2023-02-08T01:56:30;-0.70;99.90
43087;DHT22;28708;52.224;6.924;2023-02-08T01:59:00;-0.60;99.90
43087;DHT22;28708;52.224;6.924;2023-02-08T02:01:27;-0.60;99.90
43087;DHT22;28708;52.224;6.924;2023-02-08T02:03:54;-0.60;99.90
43087;DHT22;28708;52.224;6.924;2023-02-08T02:06:23;-0.60;99.90
43087;DHT22;28708;52.224;6.924;2023-02-08T02:09:00;-0.70;99.90
43087;DHT22;28708;52.224;6.924;2023-02-08T02:11:27;-0.70;99.90
43087;DHT22;28708;52.224;6.924;2023-02-08T02:13:53;-0.70;99.90
43087;DHT22;28708;52.224;6.924;2023-02-08T02:16:20;-0.70;99.90
43087;DHT22;28708;52.224;6.924;2023-02-08T02:18:45;-0.70;99.90
43087;DHT22;28708;52.224;6.924;2023-02-08T02:21:24;-0.80;99.90
43087;DHT22;28708;52.224;6.924;2023-02-08T02:29:21;-1.00;99.90
43087;DHT22;28708;52.224;6.924;2023-02-08T02:32:51;-0.90;99.90
43087;DHT22;28708;52.224;6.924;2023-02-08T02:34:53;-0.90;99.90
43087;DHT22;28708;52.224;6.924;2023-02-08T02:43:38;-0.90;99.90
43087;DHT22;28708;52.224;6.924;2023-02-08T02:46:42;-1.00;99.90
43087;DHT22;28708;52.224;6.924;2023-02-08T02:49:03;-1.00;99.90
43087;DHT22;28708;52.224;6.924;2023-02-08T02:54:13;-0.90;99.90
43087;DHT22;28708;52.224;6.924;2023-02-08T02:56:44;-0.90;99.90
43087;DHT22;28708;52.224;6.924;2023-02-08T02:59:12;-0.90;99.90
43087;DHT22;28708;52.224;6.924;2023-02-08T03:01:40;-0.90;99.90
43087;DHT22;28708;52.224;6.924;2023-02-08T03:04:56;-1.00;99.90
43087;DHT22;28708;52.224;6.924;2023-02-08T03:23:55;-1.00;99.90
43087;DHT22;28708;52.224;6.924;2023-02-08T03:29:13;-1.10;99.90
43087;DHT22;28708;52.224;6.924;2023-02-08T03:31:55;-1.10;99.90
43087;DHT22;28708;52.224;6.924;2023-02-08T03:34:23;-1.20;99.90
43087;DHT22;28708;52.224;6.924;2023-02-08T03:36:56;-1.30;99.90
43087;DHT22;28708;52.224;6.924;2023-02-08T03:39:26;-1.20;99.90
43087;DHT22;28708;52.224;6.924;2023-02-08T03:41:59;-1.20;99.90
43087;DHT22;28708;52.224;6.924;2023-02-08T03:44:39;-1.20;99.90
43087;DHT22;28708;52.224;6.924;2023-02-08T03:47:17;-1.30;99.90
43087;DHT22;28708;52.224;6.924;2023-02-08T03:49:45;-1.30;99.90
43087;DHT22;28708;52.224;6.924;2023-02-08T03:52:13;-1.40;99.90
43087;DHT22;28708;52.224;6.924;2023-02-08T03:57:22;-1.40;99.90
43087;DHT22;28708;52.224;6.924;2023-02-08T04:00:00;-1.40;99.90
43087;DHT22;28708;52.224;6.924;2023-02-08T04:02:30;-1.40;99.90
43087;DHT22;28708;52.224;6.924;2023-02-08T04:04:58;-1.40;99.90
43087;DHT22;28708;52.224;6.924;2023-02-08T04:07:25;-1.40;99.90
43087;DHT22;28708;52.224;6.924;2023-02-08T04:09:50;-1.40;99.90
43087;DHT22;28708;52.224;6.924;2023-02-08T04:12:16;-1.40;99.90
43087;DHT22;28708;52.224;6.924;2023-02-08T04:14:42;-1.30;99.90
43087;DHT22;28708;52.224;6.924;2023-02-08T04:17:08;-1.30;99.90
43087;DHT22;28708;52.224;6.924;2023-02-08T04:19:33;-1.30;99.90
43087;DHT22;28708;52.224;6.924;2023-02-08T04:21:59;-1.30;99.90
43087;DHT22;28708;52.224;6.924;2023-02-08T04:24:25;-1.30;99.90
43087;DHT22;28708;52.224;6.924;2023-02-08T04:26:50;-1.30;99.90
43087;DHT22;28708;52.224;6.924;2023-02-08T04:29:16;-1.40;99.90
43087;DHT22;28708;52.224;6.924;2023-02-08T04:31:42;-1.50;99.90
43087;DHT22;28708;52.224;6.924;2023-02-08T04:34:08;-1.50;99.90
43087;DHT22;28708;52.224;6.924;2023-02-08T04:36:34;-1.60;99.90
43087;DHT22;28708;52.224;6.924;2023-02-08T04:38:59;-1.60;99.90
43087;DHT22;28708;52.224;6.924;2023-02-08T04:41:25;-1.60;99.90
43087;DHT22;28708;52.224;6.924;2023-02-08T04:43:50;-1.50;99.90
43087;DHT22;28708;52.224;6.924;2023-02-08T04:46:16;-1.50;99.90
43087;DHT22;28708;52.224;6.924;2023-02-08T04:48:42;-1.50;99.90
43087;DHT22;28708;52.224;6.924;2023-02-08T04:51:07;-1.50;99.90
43087;DHT22;28708;52.224;6.924;2023-02-08T04:53:33;-1.60;99.90
43087;DHT22;28708;52.224;6.924;2023-02-08T04:55:59;-1.60;99.90
43087;DHT22;28708;52.224;6.924;2023-02-08T04:58:25;-1.70;99.90
43087;DHT22;28708;52.224;6.924;2023-02-08T05:00:50;-1.60;99.90
43087;DHT22;28708;52.224;6.924;2023-02-08T05:03:16;-1.70;99.90
43087;DHT22;28708;52.224;6.924;2023-02-08T05:05:41;-1.70;99.90
43087;DHT22;28708;52.224;6.924;2023-02-08T05:08:07;-1.70;99.90
43087;DHT22;28708;52.224;6.924;2023-02-08T05:10:33;-1.80;99.90
43087;DHT22;28708;52.224;6.924;2023-02-08T05:12:59;-1.80;99.90
43087;DHT22;28708;52.224;6.924;2023-02-08T05:15:24;-1.70;99.90
43087;DHT22;28708;52.224;6.924;2023-02-08T05:17:50;-1.70;99.90
43087;DHT22;28708;52.224;6.924;2023-02-08T05:20:16;-1.60;99.90
43087;DHT22;28708;52.224;6.924;2023-02-08T05:22:41;-1.60;99.90
43087;DHT22;28708;52.224;6.924;2023-02-08T05:25:07;-1.60;99.90
43087;DHT22;28708;52.224;6.924;2023-02-08T05:27:33;-1.70;99.90
43087;DHT22;28708;52.224;6.924;2023-02-08T05:29:59;-1.70;99.90
43087;DHT22;28708;52.224;6.924;2023-02-08T05:32:25;-1.60;99.90
43087;DHT22;28708;52.224;6.924;2023-02-08T05:34:51;-1.60;99.90
43087;DHT22;28708;52.224;6.924;2023-02-08T05:37:17;-1.70;99.90
43087;DHT22;28708;52.224;6.924;2023-02-08T05:39:43;-1.70;99.90
43087;DHT22;28708;52.224;6.924;2023-02-08T05:42:08;-1.70;99.90
43087;DHT22;28708;52.224;6.924;2023-02-08T05:44:34;-1.70;99.90
43087;DHT22;28708;52.224;6.924;2023-02-08T05:46:59;-1.70;99.90
43087;DHT22;28708;52.224;6.924;2023-02-08T05:49:26;-1.70;99.90
43087;DHT22;28708;52.224;6.924;2023-02-08T05:51:52;-1.70;99.90
43087;DHT22;28708;52.224;6.924;2023-02-08T05:54:17;-1.70;99.90
43087;DHT22;28708;52.224;6.924;2023-02-08T05:56:43;-1.70;99.90
43087;DHT22;28708;52.224;6.924;2023-02-08T05:59:09;-1.70;99.90
43087;DHT22;28708;52.224;6.924;2023-02-08T06:01:35;-1.80;99.90
43087;DHT22;28708;52.224;6.924;2023-02-08T06:04:01;-1.80;99.90
43087;DHT22;28708;52.224;6.924;2023-02-08T06:06:27;-1.80;99.90
43087;DHT22;28708;52.224;6.924;2023-02-08T06:08:52;-1.80;99.90
43087;DHT22;28708;52.224;6.924;2023-02-08T06:11:18;-1.80;99.90
43087;DHT22;28708;52.224;6.924;2023-02-08T06:13:45;-1.90;99.90
43087;DHT22;28708;52.224;6.924;2023-02-08T06:16:12;-1.90;99.90
43087;DHT22;28708;52.224;6.924;2023-02-08T06:18:41;-1.90;99.90
43087;DHT22;28708;52.224;6.924;2023-02-08T06:21:06;-1.90;99.90
43087;DHT22;28708;52.224;6.924;2023-02-08T06:23:32;-2.00;99.90
43087;DHT22;28708;52.224;6.924;2023-02-08T06:25:58;-2.00;99.90
43087;DHT22;28708;52.224;6.924;2023-02-08T06:28:23;-2.00;99.90
43087;DHT22;28708;52.224;6.924;2023-02-08T06:30:50;-2.00;99.90
43087;DHT22;28708;52.224;6.924;2023-02-08T06:33:16;-2.00;99.90
43087;DHT22;28708;52.224;6.924;2023-02-08T06:35:55;-2.10;99.90
43087;DHT22;28708;52.224;6.924;2023-02-08T06:38:20;-2.00;99.90
43087;DHT22;28708;52.224;6.924;2023-02-08T06:40:47;-2.00;99.90
43087;DHT22;28708;52.224;6.924;2023-02-08T06:43:13;-1.90;99.90
43087;DHT22;28708;52.224;6.924;2023-02-08T06:45:39;-1.90;99.90
43087;DHT22;28708;52.224;6.924;2023-02-08T06:48:05;-1.90;99.90
43087;DHT22;28708;52.224;6.924;2023-02-08T06:50:31;-1.90;99.90
43087;DHT22;28708;52.224;6.924;2023-02-08T06:52:56;-1.90;99.90
43087;DHT22;28708;52.224;6.924;2023-02-08T06:55:22;-1.80;99.90
43087;DHT22;28708;52.224;6.924;2023-02-08T06:57:48;-1.80;99.90
43087;DHT22;28708;52.224;6.924;2023-02-08T07:00:14;-1.80;99.90
43087;DHT22;28708;52.224;6.924;2023-02-08T07:02:39;-1.90;99.90
43087;DHT22;28708;52.224;6.924;2023-02-08T07:05:05;-1.90;99.90
43087;DHT22;28708;52.224;6.924;2023-02-08T07:07:31;-1.90;99.90
43087;DHT22;28708;52.224;6.924;2023-02-08T07:09:57;-1.90;99.90
43087;DHT22;28708;52.224;6.924;2023-02-08T07:12:22;-1.90;99.90
43087;DHT22;28708;52.224;6.924;2023-02-08T07:14:48;-1.90;99.90
43087;DHT22;28708;52.224;6.924;2023-02-08T07:17:14;-1.90;99.90
43087;DHT22;28708;52.224;6.924;2023-02-08T07:19:40;-2.00;99.90
43087;DHT22;28708;52.224;6.924;2023-02-08T07:22:06;-1.90;99.90
43087;DHT22;28708;52.224;6.924;2023-02-08T07:24:39;-1.90;99.90
43087;DHT22;28708;52.224;6.924;2023-02-08T07:27:07;-2.00;99.90
43087;DHT22;28708;52.224;6.924;2023-02-08T07:29:34;-2.10;99.90
43087;DHT22;28708;52.224;6.924;2023-02-08T07:32:00;-2.10;99.90
43087;DHT22;28708;52.224;6.924;2023-02-08T07:34:32;-2.10;99.90
43087;DHT22;28708;52.224;6.924;2023-02-08T07:36:59;-2.10;99.90
43087;DHT22;28708;52.224;6.924;2023-02-08T07:39:25;-2.00;99.90
43087;DHT22;28708;52.224;6.924;2023-02-08T07:41:51;-2.00;99.90
43087;DHT22;28708;52.224;6.924;2023-02-08T07:44:17;-1.90;99.90
43087;DHT22;28708;52.224;6.924;2023-02-08T07:46:42;-1.90;99.90
43087;DHT22;28708;52.224;6.924;2023-02-08T07:49:08;-1.70;99.90
43087;DHT22;28708;52.224;6.924;2023-02-08T07:51:34;-1.70;99.90
43087;DHT22;28708;52.224;6.924;2023-02-08T07:54:01;-1.70;99.90
43087;DHT22;28708;52.224;6.924;2023-02-08T07:56:26;-1.70;99.90
43087;DHT22;28708;52.224;6.924;2023-02-08T07:58:52;-1.70;99.90
43087;DHT22;28708;52.224;6.924;2023-02-08T08:01:17;-1.60;99.90
43087;DHT22;28708;52.224;6.924;2023-02-08T08:03:43;-1.50;99.90
43087;DHT22;28708;52.224;6.924;2023-02-08T08:06:09;-1.60;99.90
43087;DHT22;28708;52.224;6.924;2023-02-08T08:08:34;-1.60;99.90
43087;DHT22;28708;52.224;6.924;2023-02-08T08:11:00;-1.60;99.90
43087;DHT22;28708;52.224;6.924;2023-02-08T08:13:26;-1.50;99.90
43087;DHT22;28708;52.224;6.924;2023-02-08T08:15:51;-1.40;99.90
43087;DHT22;28708;52.224;6.924;2023-02-08T08:18:17;-1.20;99.90
43087;DHT22;28708;52.224;6.924;2023-02-08T08:20:43;-1.10;99.90
43087;DHT22;28708;52.224;6.924;2023-02-08T08:23:08;-1.00;99.90
43087;DHT22;28708;52.224;6.924;2023-02-08T08:25:34;-0.90;99.90
43087;DHT22;28708;52.224;6.924;2023-02-08T08:28:01;-0.80;99.90
43087;DHT22;28708;52.224;6.924;2023-02-08T08:30:27;-0.70;99.90
43087;DHT22;28708;52.224;6.924;2023-02-08T08:32:52;-0.70;99.90
43087;DHT22;28708;52.224;6.924;2023-02-08T08:35:18;-0.70;99.90
43087;DHT22;28708;52.224;6.924;2023-02-08T08:37:44;-0.70;99.90
43087;DHT22;28708;52.224;6.924;2023-02-08T08:40:10;-0.60;99.90
43087;DHT22;28708;52.224;6.924;2023-02-08T08:42:36;-0.60;99.90
43087;DHT22;28708;52.224;6.924;2023-02-08T08:45:02;-0.50;99.90
43087;DHT22;28708;52.224;6.924;2023-02-08T08:47:28;-0.40;99.90
43087;DHT22;28708;52.224;6.924;2023-02-08T08:49:54;-0.20;99.90
43087;DHT22;28708;52.224;6.924;2023-02-08T08:52:19;-0.10;99.90
43087;DHT22;28708;52.224;6.924;2023-02-08T08:54:45;0.00;99.90
43087;DHT22;28708;52.224;6.924;2023-02-08T08:57:11;0.00;99.90
43087;DHT22;28708;52.224;6.924;2023-02-08T08:59:37;0.10;99.90
43087;DHT22;28708;52.224;6.924;2023-02-08T09:02:02;0.20;99.90
43087;DHT22;28708;52.224;6.924;2023-02-08T09:04:28;0.20;99.90
43087;DHT22;28708;52.224;6.924;2023-02-08T09:06:54;0.30;99.90
43087;DHT22;28708;52.224;6.924;2023-02-08T09:09:21;0.40;99.90
43087;DHT22;28708;52.224;6.924;2023-02-08T09:11:47;0.50;99.90
43087;DHT22;28708;52.224;6.924;2023-02-08T09:14:13;0.60;99.90
43087;DHT22;28708;52.224;6.924;2023-02-08T09:16:43;0.60;99.90
43087;DHT22;28708;52.224;6.924;2023-02-08T09:19:13;0.80;99.90
43087;DHT22;28708;52.224;6.924;2023-02-08T09:21:39;0.90;99.90
43087;DHT22;28708;52.224;6.924;2023-02-08T09:24:05;1.00;99.90
43087;DHT22;28708;52.224;6.924;2023-02-08T09:26:31;1.10;99.90
43087;DHT22;28708;52.224;6.924;2023-02-08T09:28:57;1.20;99.90
43087;DHT22;28708;52.224;6.924;2023-02-08T09:31:25;1.30;99.90
43087;DHT22;28708;52.224;6.924;2023-02-08T09:33:54;1.50;99.90
43087;DHT22;28708;52.224;6.924;2023-02-08T09:36:21;1.60;99.90
43087;DHT22;28708;52.224;6.924;2023-02-08T09:38:48;1.80;99.90
43087;DHT22;28708;52.224;6.924;2023-02-08T09:44:30;2.00;99.90
43087;DHT22;28708;52.224;6.924;2023-02-08T09:49:40;2.60;99.90
43087;DHT22;28708;52.224;6.924;2023-02-08T09:52:15;3.60;99.90
43087;DHT22;28708;52.224;6.924;2023-02-08T09:54:47;6.00;99.90
43087;DHT22;28708;52.224;6.924;2023-02-08T09:57:20;8.30;99.90
43087;DHT22;28708;52.224;6.924;2023-02-08T09:59:56;10.30;99.90
43087;DHT22;28708;52.224;6.924;2023-02-08T10:02:26;11.80;99.90
43087;DHT22;28708;52.224;6.924;2023-02-08T10:05:14;12.60;99.90
43087;DHT22;28708;52.224;6.924;2023-02-08T10:07:40;14.30;99.90
43087;DHT22;28708;52.224;6.924;2023-02-08T10:13:38;14.10;96.30
43087;DHT22;28708;52.224;6.924;2023-02-08T10:19:19;13.30;94.00
43087;DHT22;28708;52.224;6.924;2023-02-08T10:21:54;13.90;93.90
43087;DHT22;28708;52.224;6.924;2023-02-08T10:24:51;14.50;92.80
43087;DHT22;28708;52.224;6.924;2023-02-08T10:27:23;13.90;92.60
43087;DHT22;28708;52.224;6.924;2023-02-08T10:29:56;13.80;92.60
43087;DHT22;28708;52.224;6.924;2023-02-08T10:35:31;13.80;89.20
43087;DHT22;28708;52.224;6.924;2023-02-08T10:40:47;14.80;86.80
43087;DHT22;28708;52.224;6.924;2023-02-08T10:46:20;15.70;86.40
43087;DHT22;28708;52.224;6.924;2023-02-08T10:51:24;16.10;81.20
43087;DHT22;28708;52.224;6.924;2023-02-08T10:53:51;15.10;79.70
43087;DHT22;28708;52.224;6.924;2023-02-08T10:56:38;15.40;78.80
43087;DHT22;28708;52.224;6.924;2023-02-08T10:59:17;16.30;77.30
43087;DHT22;28708;52.224;6.924;2023-02-08T11:01:46;16.90;75.70
43087;DHT22;28708;52.224;6.924;2023-02-08T11:04:13;17.20;72.50
43087;DHT22;28708;52.224;6.924;2023-02-08T11:06:41;17.50;72.30
43087;DHT22;28708;52.224;6.924;2023-02-08T11:09:28;16.40;71.50
43087;DHT22;28708;52.224;6.924;2023-02-08T11:11:55;14.50;71.70
43087;DHT22;28708;52.224;6.924;2023-02-08T11:16:55;14.90;73.10
43087;DHT22;28708;52.224;6.924;2023-02-08T11:19:35;16.40;72.30
43087;DHT22;28708;52.224;6.924;2023-02-08T11:22:14;17.10;70.90
43087;DHT22;28708;52.224;6.924;2023-02-08T11:24:43;16.50;70.20
43087;DHT22;28708;52.224;6.924;2023-02-08T11:27:35;15.20;71.40
43087;DHT22;28708;52.224;6.924;2023-02-08T11:32:45;16.10;70.10
43087;DHT22;28708;52.224;6.924;2023-02-08T11:37:53;15.70;62.60
43087;DHT22;28708;52.224;6.924;2023-02-08T11:40:27;15.60;63.10
43087;DHT22;28708;52.224;6.924;2023-02-08T11:42:54;15.40;61.90
43087;DHT22;28708;52.224;6.924;2023-02-08T11:45:31;15.10;60.30
43087;DHT22;28708;52.224;6.924;2023-02-08T11:47:58;14.60;57.70
43087;DHT22;28708;52.224;6.924;2023-02-08T11:50:31;14.50;58.70
43087;DHT22;28708;52.224;6.924;2023-02-08T11:53:00;14.60;57.80
43087;DHT22;28708;52.224;6.924;2023-02-08T11:55:29;14.90;58.00
43087;DHT22;28708;52.224;6.924;2023-02-08T12:00:39;15.50;57.40
43087;DHT22;28708;52.224;6.924;2023-02-08T12:03:13;15.10;58.90
43087;DHT22;28708;52.224;6.924;2023-02-08T12:09:29;11.20;58.60
43087;DHT22;28708;52.224;6.924;2023-02-08T12:12:08;9.30;62.60
43087;DHT22;28708;52.224;6.924;2023-02-08T12:15:00;8.60;60.50
43087;DHT22;28708;52.224;6.924;2023-02-08T12:23:05;7.70;62.20
43087;DHT22;28708;52.224;6.924;2023-02-08T12:28:50;7.60;58.20
43087;DHT22;28708;52.224;6.924;2023-02-08T12:31:47;7.70;59.30
43087;DHT22;28708;52.224;6.924;2023-02-08T12:34:53;7.60;59.00
43087;DHT22;28708;52.224;6.924;2023-02-08T12:37:35;7.70;60.00
43087;DHT22;28708;52.224;6.924;2023-02-08T12:43:36;7.80;64.60
43087;DHT22;28708;52.224;6.924;2023-02-08T12:49:02;7.70;63.60
43087;DHT22;28708;52.224;6.924;2023-02-08T12:56:57;7.80;64.30
43087;DHT22;28708;52.224;6.924;2023-02-08T12:59:29;7.90;66.40
43087;DHT22;28708;52.224;6.924;2023-02-08T13:02:01;7.90;65.20
43087;DHT22;28708;52.224;6.924;2023-02-08T13:04:37;8.00;64.20
43087;DHT22;28708;52.224;6.924;2023-02-08T13:07:40;8.10;65.10
43087;DHT22;28708;52.224;6.924;2023-02-08T13:10:45;8.10;63.60
43087;DHT22;28708;52.224;6.924;2023-02-08T13:13:20;8.10;61.20
43087;DHT22;28708;52.224;6.924;2023-02-08T13:15:58;8.10;62.50
43087;DHT22;28708;52.224;6.924;2023-02-08T13:18:34;8.10;59.40
43087;DHT22;28708;52.224;6.924;2023-02-08T13:21:07;8.20;58.90
43087;DHT22;28708;52.224;6.924;2023-02-08T13:23:41;8.30;56.90
43087;DHT22;28708;52.224;6.924;2023-02-08T13:26:14;8.40;59.30
43087;DHT22;28708;52.224;6.924;2023-02-08T13:28:49;8.50;57.10
43087;DHT22;28708;52.224;6.924;2023-02-08T13:31:28;8.40;58.80
43087;DHT22;28708;52.224;6.924;2023-02-08T13:37:16;8.50;57.10
43087;DHT22;28708;52.224;6.924;2023-02-08T13:39:33;8.50;58.10
43087;DHT22;28708;52.224;6.924;2023-02-08T13:42:02;8.60;56.20
43087;DHT22;28708;52.224;6.924;2023-02-08T13:44:35;8.60;58.20
43087;DHT22;28708;52.224;6.924;2023-02-08T13:47:03;8.60;57.90
43087;DHT22;28708;52.224;6.924;2023-02-08T13:49:43;8.70;58.60
43087;DHT22;28708;52.224;6.924;2023-02-08T14:03:39;8.70;60.30
43087;DHT22;28708;52.224;6.924;2023-02-08T14:06:17;8.70;58.60
43087;DHT22;28708;52.224;6.924;2023-02-08T14:14:19;8.80;61.40
43087;DHT22;28708;52.224;6.924;2023-02-08T14:17:08;9.00;60.50
43087;DHT22;28708;52.224;6.924;2023-02-08T14:19:39;8.90;62.30
43087;DHT22;28708;52.224;6.924;2023-02-08T14:27:28;8.90;60.20
43087;DHT22;28708;52.224;6.924;2023-02-08T14:32:43;9.10;60.10
43087;DHT22;28708;52.224;6.924;2023-02-08T14:35:20;9.10;59.40
43087;DHT22;28708;52.224;6.924;2023-02-08T14:37:48;9.20;59.60
43087;DHT22;28708;52.224;6.924;2023-02-08T14:48:26;9.10;57.00
43087;DHT22;28708;52.224;6.924;2023-02-08T14:58:39;8.60;57.90
43087;DHT22;28708;52.224;6.924;2023-02-08T15:01:21;8.70;56.20
43087;DHT22;28708;52.224;6.924;2023-02-08T15:03:53;8.80;57.70
43087;DHT22;28708;52.224;6.924;2023-02-08T15:09:04;8.70;58.60
43087;DHT22;28708;52.224;6.924;2023-02-08T15:11:32;8.70;58.50
43087;DHT22;28708;52.224;6.924;2023-02-08T15:14:01;8.60;59.20
43087;DHT22;28708;52.224;6.924;2023-02-08T15:16:40;8.50;58.10
43087;DHT22;28708;52.224;6.924;2023-02-08T15:19:07;8.60;58.50
43087;DHT22;28708;52.224;6.924;2023-02-08T15:21:33;8.60;59.70
43087;DHT22;28708;52.224;6.924;2023-02-08T15:24:03;8.60;60.50
43087;DHT22;28708;52.224;6.924;2023-02-08T15:26:28;8.60;59.80
43087;DHT22;28708;52.224;6.924;2023-02-08T15:28:55;8.60;58.70
43087;DHT22;28708;52.224;6.924;2023-02-08T15:31:31;8.70;61.00
43087;DHT22;28708;52.224;6.924;2023-02-08T15:33:59;8.60;60.00
43087;DHT22;28708;52.224;6.924;2023-02-08T15:36:31;8.50;61.20
43087;DHT22;28708;52.224;6.924;2023-02-08T15:39:03;8.50;59.70
43087;DHT22;28708;52.224;6.924;2023-02-08T15:41:33;8.30;59.70
43087;DHT22;28708;52.224;6.924;2023-02-08T15:46:33;8.20;60.00
43087;DHT22;28708;52.224;6.924;2023-02-08T15:49:00;8.00;59.40
43087;DHT22;28708;52.224;6.924;2023-02-08T15:51:27;7.90;59.50
43087;DHT22;28708;52.224;6.924;2023-02-08T15:53:54;7.90;59.50
43087;DHT22;28708;52.224;6.924;2023-02-08T15:56:31;7.70;59.70
43087;DHT22;28708;52.224;6.924;2023-02-08T15:59:00;7.60;60.10
43087;DHT22;28708;52.224;6.924;2023-02-08T16:01:26;7.70;59.70
43087;DHT22;28708;52.224;6.924;2023-02-08T16:03:56;7.70;58.70
43087;DHT22;28708;52.224;6.924;2023-02-08T16:06:28;7.50;59.60
43087;DHT22;28708;52.224;6.924;2023-02-08T16:08:58;7.40;59.90
43087;DHT22;28708;52.224;6.924;2023-02-08T16:11:26;7.20;61.60
43087;DHT22;28708;52.224;6.924;2023-02-08T16:13:55;7.10;61.80
43087;DHT22;28708;52.224;6.924;2023-02-08T16:16:42;6.90;61.90
43087;DHT22;28708;52.224;6.924;2023-02-08T16:19:21;6.80;63.30
43087;DHT22;28708;52.224;6.924;2023-02-08T16:21:47;6.80;64.40
43087;DHT22;28708;52.224;6.924;2023-02-08T16:26:51;6.70;66.30
43087;DHT22;28708;52.224;6.924;2023-02-08T16:29:26;6.60;65.20
43087;DHT22;28708;52.224;6.924;2023-02-08T16:34:33;6.20;70.00
43087;DHT22;28708;52.224;6.924;2023-02-08T16:36:59;6.10;68.60
43087;DHT22;28708;52.224;6.924;2023-02-08T16:39:38;6.00;71.30
43087;DHT22;28708;52.224;6.924;2023-02-08T16:42:36;5.90;72.10
43087;DHT22;28708;52.224;6.924;2023-02-08T16:47:46;5.60;73.60
43087;DHT22;28708;52.224;6.924;2023-02-08T16:50:16;5.60;73.60
43087;DHT22;28708;52.224;6.924;2023-02-08T16:52:42;5.40;73.70
43087;DHT22;28708;52.224;6.924;2023-02-08T16:55:17;5.40;75.50
43087;DHT22;28708;52.224;6.924;2023-02-08T16:57:49;5.20;74.30
43087;DHT22;28708;52.224;6.924;2023-02-08T17:00:28;5.20;74.60
43087;DHT22;28708;52.224;6.924;2023-02-08T17:02:55;5.10;74.20
43087;DHT22;28708;52.224;6.924;2023-02-08T17:05:23;5.00;77.60
43087;DHT22;28708;52.224;6.924;2023-02-08T17:07:49;5.00;76.50
43087;DHT22;28708;52.224;6.924;2023-02-08T17:10:20;4.90;77.40
43087;DHT22;28708;52.224;6.924;2023-02-08T17:12:47;4.80;78.30
43087;DHT22;28708;52.224;6.924;2023-02-08T17:15:13;4.70;80.20
43087;DHT22;28708;52.224;6.924;2023-02-08T17:17:38;4.60;78.40
43087;DHT22;28708;52.224;6.924;2023-02-08T17:20:11;4.50;78.50
43087;DHT22;28708;52.224;6.924;2023-02-08T17:22:39;4.50;79.70
43087;DHT22;28708;52.224;6.924;2023-02-08T17:25:05;4.50;80.10
43087;DHT22;28708;52.224;6.924;2023-02-08T17:27:31;4.40;80.30
43087;DHT22;28708;52.224;6.924;2023-02-08T17:29:57;4.40;79.70
43087;DHT22;28708;52.224;6.924;2023-02-08T17:32:23;4.40;80.00
43087;DHT22;28708;52.224;6.924;2023-02-08T17:34:49;4.40;81.40
43087;DHT22;28708;52.224;6.924;2023-02-08T17:37:14;4.30;82.50
43087;DHT22;28708;52.224;6.924;2023-02-08T17:39:40;4.20;82.90
43087;DHT22;28708;52.224;6.924;2023-02-08T17:42:05;4.10;82.10
43087;DHT22;28708;52.224;6.924;2023-02-08T17:44:31;4.00;83.30
43087;DHT22;28708;52.224;6.924;2023-02-08T17:46:57;3.90;83.60
43087;DHT22;28708;52.224;6.924;2023-02-08T17:49:23;3.90;83.90
43087;DHT22;28708;52.224;6.924;2023-02-08T17:51:48;3.90;83.70
43087;DHT22;28708;52.224;6.924;2023-02-08T17:54:14;3.80;84.80
43087;DHT22;28708;52.224;6.924;2023-02-08T17:56:40;3.80;85.30
43087;DHT22;28708;52.224;6.924;2023-02-08T17:59:05;3.70;84.50
43087;DHT22;28708;52.224;6.924;2023-02-08T18:01:31;3.60;85.00
43087;DHT22;28708;52.224;6.924;2023-02-08T18:03:58;3.60;87.40
43087;DHT22;28708;52.224;6.924;2023-02-08T18:06:25;3.50;88.00
43087;DHT22;28708;52.224;6.924;2023-02-08T18:08:52;3.40;87.70
43087;DHT22;28708;52.224;6.924;2023-02-08T18:11:19;3.40;88.20
43087;DHT22;28708;52.224;6.924;2023-02-08T18:13:50;3.30;88.40
43087;DHT22;28708;52.224;6.924;2023-02-08T18:16:21;3.30;88.20
43087;DHT22;28708;52.224;6.924;2023-02-08T18:18:47;3.30;87.50
43087;DHT22;28708;52.224;6.924;2023-02-08T18:21:16;3.20;87.90
43087;DHT22;28708;52.224;6.924;2023-02-08T18:23:42;3.20;88.40
43087;DHT22;28708;52.224;6.924;2023-02-08T18:26:10;3.20;88.30